Time;durP1;ratioP1;P1;durP2;ratioP2;P2;SDS_P1;SDS_P2;PMS_P1;PMS_P2;Temp;Humidity;BMP_temperature;BMP_pressure;BME280_temperature;BME280_humidity;BME280_pressure;Samples;Min_cycle;Max_cycle;Signal;HPM_P1;HPM_P2
2022/10/31 00:01:39;;;;;;;7.82;4.05;;;;;;;;;;4959677;28;20087;-79
2022/10/31 00:04:05;;;;;;;9.15;4.30;;;;;;;;;;4950901;28;20054;-80
2022/10/31 00:06:31;;;;;;;6.00;4.10;;;;;;;;;;4950477;28;20054;-80
2022/10/31 00:08:59;;;;;;;7.45;4.00;;;;;;;;;;4957370;28;20102;-80
2022/10/31 00:11:25;;;;;;;8.82;4.10;;;;;;;;;;4940619;28;20491;-80
2022/10/31 00:13:51;;;;;;;11.52;4.18;;;;;;;;;;4946561;28;20047;-79
2022/10/31 00:16:19;;;;;;;8.07;3.70;;;;;;;;;;4952909;28;20047;-80
2022/10/31 00:18:48;;;;;;;8.65;3.78;;;;;;;;;;4945727;28;20539;-79
2022/10/31 00:21:15;;;;;;;8.43;4.40;;;;;;;;;;4978693;28;20448;-80
2022/10/31 00:23:41;;;;;;;9.23;4.35;;;;;;;;;;4945978;28;20051;-80
2022/10/31 00:26:07;;;;;;;12.00;5.43;;;;;;;;;;4950572;28;20054;-79
2022/10/31 00:28:33;;;;;;;7.63;4.60;;;;;;;;;;4951509;28;20047;-79
2022/10/31 00:30:59;;;;;;;8.82;4.45;;;;;;;;;;4949683;28;20050;-79
2022/10/31 00:33:25;;;;;;;8.18;4.72;;;;;;;;;;4948140;28;20561;-79
2022/10/31 00:35:51;;;;;;;10.00;5.50;;;;;;;;;;4982105;28;20083;-79
2022/10/31 00:38:17;;;;;;;10.05;5.70;;;;;;;;;;4952534;28;20495;-79
2022/10/31 00:40:43;;;;;;;9.73;6.20;;;;;;;;;;4952435;28;20047;-79
2022/10/31 00:43:09;;;;;;;14.82;6.93;;;;;;;;;;4947852;28;20147;-79
2022/10/31 00:45:35;;;;;;;11.35;6.90;;;;;;;;;;4971747;28;20506;-79
2022/10/31 00:48:01;;;;;;;11.10;7.65;;;;;;;;;;4954626;28;20148;-79
2022/10/31 00:50:27;;;;;;;10.57;7.60;;;;;;;;;;4950022;29;20142;-79
2022/10/31 00:52:57;;;;;;;11.55;8.23;;;;;;;;;;4948892;28;20055;-79
2022/10/31 00:55:23;;;;;;;14.55;8.80;;;;;;;;;;4956893;28;20040;-79
2022/10/31 00:57:49;;;;;;;14.20;8.82;;;;;;;;;;4959800;28;20047;-79
2022/10/31 01:00:16;;;;;;;13.38;8.40;;;;;;;;;;4950318;28;20122;-78
2022/10/31 01:02:42;;;;;;;14.05;8.75;;;;;;;;;;4954893;28;20487;-79
2022/10/31 01:05:08;;;;;;;10.95;8.55;;;;;;;;;;4953189;28;20106;-79
2022/10/31 01:07:40;;;;;;;13.07;8.65;;;;;;;;;;4953222;28;20043;-78
2022/10/31 01:10:06;;;;;;;10.77;9.15;;;;;;;;;;4958931;28;20053;-79
2022/10/31 01:12:36;;;;;;;13.95;8.60;;;;;;;;;;4959761;28;20039;-79
2022/10/31 01:15:02;;;;;;;14.63;9.13;;;;;;;;;;4962456;28;20057;-79
2022/10/31 01:17:28;;;;;;;11.70;8.55;;;;;;;;;;4956344;28;20119;-79
2022/10/31 01:19:54;;;;;;;12.90;8.30;;;;;;;;;;4942726;28;20064;-79
2022/10/31 01:22:20;;;;;;;13.90;8.52;;;;;;;;;;4948420;28;20430;-79
2022/10/31 01:24:46;;;;;;;12.27;8.70;;;;;;;;;;4949577;28;20047;-79
2022/10/31 01:27:12;;;;;;;12.90;8.27;;;;;;;;;;4953433;28;20055;-79
2022/10/31 01:29:44;;;;;;;11.60;8.35;;;;;;;;;;4956836;28;20435;-79
2022/10/31 01:32:11;;;;;;;12.57;8.38;;;;;;;;;;4945832;28;20053;-79
2022/10/31 01:34:37;;;;;;;13.63;8.43;;;;;;;;;;4980441;28;20055;-79
2022/10/31 01:37:03;;;;;;;12.85;8.68;;;;;;;;;;4952692;28;20054;-79
2022/10/31 01:39:29;;;;;;;18.38;8.30;;;;;;;;;;4956891;28;20234;-79
2022/10/31 01:41:55;;;;;;;14.85;9.07;;;;;;;;;;4951393;28;20491;-79
2022/10/31 01:44:21;;;;;;;14.45;10.43;;;;;;;;;;4951690;28;20054;-79
2022/10/31 01:46:47;;;;;;;14.55;9.82;;;;;;;;;;4978744;28;20040;-79
2022/10/31 01:49:15;;;;;;;13.35;9.68;;;;;;;;;;4952464;28;20499;-79
2022/10/31 01:51:45;;;;;;;12.68;9.90;;;;;;;;;;4988596;28;20058;-79
2022/10/31 01:54:13;;;;;;;14.32;10.13;;;;;;;;;;4948725;28;20052;-79
2022/10/31 01:56:41;;;;;;;14.90;10.10;;;;;;;;;;4984342;28;20043;-79
2022/10/31 01:59:09;;;;;;;17.83;10.40;;;;;;;;;;4941932;28;20042;-79
2022/10/31 02:01:35;;;;;;;14.77;10.23;;;;;;;;;;4962584;28;20059;-79
2022/10/31 02:04:02;;;;;;;14.30;10.55;;;;;;;;;;4951661;28;20053;-79
2022/10/31 02:06:34;;;;;;;13.35;10.30;;;;;;;;;;4951585;28;20192;-79
2022/10/31 02:09:01;;;;;;;17.63;11.57;;;;;;;;;;4978335;28;20517;-79
2022/10/31 02:11:28;;;;;;;18.15;11.10;;;;;;;;;;4947692;28;20047;-79
2022/10/31 02:13:55;;;;;;;18.25;11.38;;;;;;;;;;4988100;28;20039;-79
2022/10/31 02:16:21;;;;;;;15.85;11.50;;;;;;;;;;4956931;28;20102;-79
2022/10/31 02:18:47;;;;;;;13.10;11.68;;;;;;;;;;4948190;28;20044;-79
2022/10/31 02:21:36;;;;;;;14.35;11.73;;;;;;;;;;4951753;28;20407;-79
2022/10/31 02:24:20;;;;;;;15.27;11.75;;;;;;;;;;4952290;28;20047;-79
2022/10/31 02:26:52;;;;;;;15.05;12.20;;;;;;;;;;4951388;28;20078;-79
2022/10/31 02:29:36;;;;;;;16.77;12.98;;;;;;;;;;4945895;28;20047;-79
2022/10/31 02:32:11;;;;;;;17.05;12.88;;;;;;;;;;4952239;28;20083;-79
2022/10/31 02:34:44;;;;;;;15.95;13.07;;;;;;;;;;4951451;28;20480;-79
2022/10/31 02:37:14;;;;;;;16.10;12.30;;;;;;;;;;4952977;28;20047;-79
2022/10/31 02:39:46;;;;;;;18.75;12.98;;;;;;;;;;4941471;28;20047;-79
2022/10/31 02:42:19;;;;;;;17.80;14.38;;;;;;;;;;4955031;28;20113;-79
2022/10/31 02:44:49;;;;;;;16.85;13.40;;;;;;;;;;4949883;28;20042;-79
2022/10/31 02:47:19;;;;;;;17.85;14.40;;;;;;;;;;4945866;28;20043;-79
2022/10/31 02:49:54;;;;;;;16.00;13.55;;;;;;;;;;4953568;28;20035;-79
2022/10/31 02:52:30;;;;;;;19.45;13.80;;;;;;;;;;4952939;28;20381;-79
2022/10/31 02:54:56;;;;;;;18.80;14.48;;;;;;;;;;4949511;28;20051;-79
2022/10/31 02:57:27;;;;;;;15.75;13.15;;;;;;;;;;4947452;28;20388;-79
2022/10/31 02:59:55;;;;;;;16.65;13.25;;;;;;;;;;4946224;28;20043;-79
2022/10/31 03:02:39;;;;;;;18.88;14.77;;;;;;;;;;4947258;28;20066;-79
2022/10/31 03:05:31;;;;;;;15.60;13.75;;;;;;;;;;4948696;28;20515;-79
2022/10/31 03:08:23;;;;;;;21.38;15.50;;;;;;;;;;4952820;28;20048;-79
2022/10/31 03:10:52;;;;;;;18.58;14.38;;;;;;;;;;4958362;28;20463;-79
2022/10/31 03:13:18;;;;;;;17.25;14.70;;;;;;;;;;4947791;28;20149;-79
2022/10/31 03:15:45;;;;;;;17.38;14.57;;;;;;;;;;4948476;28;20507;-79
2022/10/31 03:18:31;;;;;;;17.80;14.73;;;;;;;;;;4978443;28;20050;-79
2022/10/31 03:21:01;;;;;;;16.92;14.02;;;;;;;;;;4939296;28;20055;-79
2022/10/31 03:23:29;;;;;;;17.58;14.10;;;;;;;;;;4942589;28;20074;-79
2022/10/31 03:25:55;;;;;;;18.73;13.90;;;;;;;;;;4949169;28;20492;-79
2022/10/31 03:28:24;;;;;;;18.05;14.70;;;;;;;;;;4947689;28;20126;-79
2022/10/31 03:30:51;;;;;;;18.80;14.45;;;;;;;;;;4963345;28;20043;-79
2022/10/31 03:33:22;;;;;;;17.40;14.05;;;;;;;;;;4953203;28;20039;-79
2022/10/31 03:35:49;;;;;;;17.88;15.00;;;;;;;;;;4950775;28;20582;-79
2022/10/31 03:38:16;;;;;;;19.85;15.25;;;;;;;;;;4975189;28;20043;-79
2022/10/31 03:40:43;;;;;;;20.38;14.85;;;;;;;;;;4945868;28;20117;-79
2022/10/31 03:43:12;;;;;;;19.77;15.68;;;;;;;;;;4976520;28;20054;-79
2022/10/31 03:45:42;;;;;;;20.08;14.32;;;;;;;;;;4949070;28;20119;-79
2022/10/31 03:48:08;;;;;;;20.15;15.52;;;;;;;;;;4948972;28;20392;-79
2022/10/31 03:50:46;;;;;;;20.52;15.48;;;;;;;;;;4950682;28;20054;-79
2022/10/31 03:53:15;;;;;;;20.10;14.93;;;;;;;;;;4943928;28;20050;-79
2022/10/31 03:55:44;;;;;;;21.88;15.52;;;;;;;;;;4948518;28;20043;-79
2022/10/31 03:58:19;;;;;;;17.10;14.13;;;;;;;;;;4956441;28;20053;-79
2022/10/31 04:00:46;;;;;;;17.88;14.75;;;;;;;;;;4952537;28;20059;-79
2022/10/31 04:03:21;;;;;;;19.23;15.90;;;;;;;;;;4980601;28;20087;-79
2022/10/31 04:05:48;;;;;;;17.83;15.73;;;;;;;;;;4957946;28;20609;-79
2022/10/31 04:08:18;;;;;;;17.80;14.20;;;;;;;;;;4942486;28;20112;-78
2022/10/31 04:10:45;;;;;;;23.45;15.60;;;;;;;;;;4939821;28;20511;-79
2022/10/31 04:13:12;;;;;;;19.80;16.38;;;;;;;;;;4950851;28;20045;-79
2022/10/31 04:15:39;;;;;;;17.67;15.48;;;;;;;;;;4943978;28;20058;-79
2022/10/31 04:18:05;;;;;;;18.10;14.82;;;;;;;;;;4963327;28;20047;-79
2022/10/31 04:20:41;;;;;;;18.77;16.17;;;;;;;;;;4952436;28;20066;-79
2022/10/31 04:23:17;;;;;;;16.95;15.15;;;;;;;;;;4941389;28;20229;-79
2022/10/31 04:25:43;;;;;;;21.73;16.98;;;;;;;;;;4947073;28;20043;-79
2022/10/31 04:28:09;;;;;;;20.58;16.25;;;;;;;;;;4943970;28;20502;-79
2022/10/31 04:30:35;;;;;;;18.50;15.35;;;;;;;;;;4953558;28;20040;-79
2022/10/31 04:33:01;;;;;;;19.90;16.50;;;;;;;;;;4946989;28;20468;-79
2022/10/31 04:35:27;;;;;;;23.88;17.10;;;;;;;;;;4950861;28;20047;-79
2022/10/31 04:37:53;;;;;;;21.52;16.88;;;;;;;;;;4939190;28;20048;-79
2022/10/31 04:40:22;;;;;;;17.88;15.95;;;;;;;;;;4934272;29;20115;-79
2022/10/31 04:42:48;;;;;;;17.95;15.93;;;;;;;;;;4949802;28;20575;-79
2022/10/31 04:45:14;;;;;;;20.90;16.65;;;;;;;;;;4947066;28;20139;-79
2022/10/31 04:47:40;;;;;;;18.98;16.55;;;;;;;;;;4954155;28;20105;-79
2022/10/31 04:50:06;;;;;;;21.23;17.20;;;;;;;;;;4955393;28;20051;-79
2022/10/31 04:52:32;;;;;;;19.77;17.23;;;;;;;;;;4951982;28;20054;-79
2022/10/31 04:54:58;;;;;;;18.48;15.65;;;;;;;;;;4961084;28;20528;-79
2022/10/31 04:57:24;;;;;;;20.95;16.33;;;;;;;;;;4953144;28;20043;-79
2022/10/31 04:59:50;;;;;;;19.42;16.30;;;;;;;;;;4948183;28;20154;-79
2022/10/31 05:02:16;;;;;;;23.70;16.85;;;;;;;;;;4949411;28;20067;-79
2022/10/31 05:04:42;;;;;;;18.92;16.17;;;;;;;;;;4949615;28;20079;-79
2022/10/31 05:07:08;;;;;;;19.55;17.02;;;;;;;;;;4954678;28;20083;-79
2022/10/31 05:09:34;;;;;;;20.05;16.33;;;;;;;;;;4951666;28;20082;-79
2022/10/31 05:12:00;;;;;;;20.75;17.08;;;;;;;;;;4948983;28;20110;-79
2022/10/31 05:14:26;;;;;;;18.98;16.58;;;;;;;;;;4964693;28;20043;-79
2022/10/31 05:16:55;;;;;;;18.83;15.90;;;;;;;;;;4947924;28;20047;-79
2022/10/31 05:19:21;;;;;;;18.88;16.10;;;;;;;;;;4958126;28;20062;-79
2022/10/31 05:21:47;;;;;;;17.73;14.98;;;;;;;;;;4963577;28;20395;-79
2022/10/31 05:24:13;;;;;;;19.67;15.85;;;;;;;;;;4948236;28;20047;-79
2022/10/31 05:26:39;;;;;;;17.77;15.63;;;;;;;;;;4979064;28;20480;-79
2022/10/31 05:29:05;;;;;;;20.65;16.10;;;;;;;;;;4966794;28;20047;-79
2022/10/31 05:31:31;;;;;;;20.27;16.02;;;;;;;;;;4959223;28;20050;-79
2022/10/31 05:33:57;;;;;;;20.45;16.20;;;;;;;;;;4955495;28;20047;-79
2022/10/31 05:36:23;;;;;;;19.92;16.15;;;;;;;;;;4953535;28;20149;-79
2022/10/31 05:38:49;;;;;;;19.20;16.25;;;;;;;;;;4955245;28;20079;-79
2022/10/31 05:41:15;;;;;;;18.92;15.75;;;;;;;;;;4951793;28;20067;-79
2022/10/31 05:43:41;;;;;;;18.67;16.45;;;;;;;;;;4942855;28;20043;-79
2022/10/31 05:46:07;;;;;;;18.90;15.60;;;;;;;;;;4948894;28;20410;-79
2022/10/31 05:48:33;;;;;;;18.25;16.25;;;;;;;;;;4955473;28;20038;-79
2022/10/31 05:50:59;;;;;;;21.95;16.73;;;;;;;;;;4958649;28;20051;-79
2022/10/31 05:53:25;;;;;;;19.52;17.30;;;;;;;;;;4940477;28;20044;-79
2022/10/31 05:55:51;;;;;;;19.55;16.88;;;;;;;;;;4954032;28;20106;-79
2022/10/31 05:58:17;;;;;;;22.50;19.00;;;;;;;;;;4954976;28;21326;-79
2022/10/31 06:00:43;;;;;;;22.48;19.15;;;;;;;;;;4939733;28;20051;-79
2022/10/31 06:03:10;;;;;;;21.65;18.70;;;;;;;;;;4951766;28;20050;-79
2022/10/31 06:05:36;;;;;;;21.17;18.63;;;;;;;;;;4959267;28;20047;-79
2022/10/31 06:08:02;;;;;;;21.02;17.73;;;;;;;;;;4980699;28;20047;-79
2022/10/31 06:10:28;;;;;;;21.30;18.98;;;;;;;;;;4953055;28;20243;-79
2022/10/31 06:12:54;;;;;;;20.27;18.10;;;;;;;;;;4953664;28;20093;-79
2022/10/31 06:15:20;;;;;;;22.08;18.25;;;;;;;;;;4942936;28;20058;-79
2022/10/31 06:17:46;;;;;;;22.52;20.13;;;;;;;;;;4953998;28;20064;-79
2022/10/31 06:20:12;;;;;;;21.58;19.35;;;;;;;;;;4952566;28;20123;-79
2022/10/31 06:22:38;;;;;;;24.88;20.98;;;;;;;;;;4950048;29;20079;-79
2022/10/31 06:25:04;;;;;;;23.27;19.35;;;;;;;;;;4953578;28;20566;-79
2022/10/31 06:27:30;;;;;;;21.70;19.35;;;;;;;;;;4944767;28;20090;-79
2022/10/31 06:29:56;;;;;;;23.45;19.83;;;;;;;;;;4951694;28;20436;-79
2022/10/31 06:32:23;;;;;;;21.20;19.00;;;;;;;;;;4953897;28;20094;-79
2022/10/31 06:34:51;;;;;;;22.63;19.58;;;;;;;;;;4950090;28;20043;-79
2022/10/31 06:37:17;;;;;;;25.65;20.30;;;;;;;;;;4951333;28;20050;-80
2022/10/31 06:39:43;;;;;;;23.70;20.05;;;;;;;;;;4954404;28;20065;-79
2022/10/31 06:42:12;;;;;;;22.20;18.48;;;;;;;;;;4950757;28;20518;-79
2022/10/31 06:44:38;;;;;;;22.08;19.30;;;;;;;;;;4939731;28;20050;-78
2022/10/31 06:47:06;;;;;;;23.75;18.70;;;;;;;;;;4948330;28;20574;-79
2022/10/31 06:49:32;;;;;;;24.77;19.45;;;;;;;;;;4950396;28;20440;-79
2022/10/31 06:51:58;;;;;;;24.73;20.25;;;;;;;;;;4953758;28;20063;-79
2022/10/31 06:54:24;;;;;;;23.95;18.80;;;;;;;;;;4964145;28;20053;-79
2022/10/31 06:56:50;;;;;;;21.52;19.20;;;;;;;;;;4955850;28;20122;-79
2022/10/31 06:59:16;;;;;;;22.00;18.63;;;;;;;;;;4954879;28;20062;-76
2022/10/31 07:01:42;;;;;;;22.27;18.25;;;;;;;;;;4957761;28;20412;-75
2022/10/31 07:04:11;;;;;;;22.67;19.02;;;;;;;;;;4958970;28;20046;-75
2022/10/31 07:06:37;;;;;;;21.50;17.95;;;;;;;;;;4954362;28;20043;-75
2022/10/31 07:09:03;;;;;;;21.27;18.95;;;;;;;;;;4957588;28;20052;-75
2022/10/31 07:11:39;;;;;;;22.05;18.45;;;;;;;;;;4953574;28;20043;-75
2022/10/31 07:14:05;;;;;;;24.13;19.77;;;;;;;;;;4963468;28;20086;-75
2022/10/31 07:16:31;;;;;;;21.10;18.17;;;;;;;;;;4957643;28;20082;-75
2022/10/31 07:18:57;;;;;;;23.70;18.73;;;;;;;;;;4962914;28;20070;-75
2022/10/31 07:21:23;;;;;;;20.95;18.75;;;;;;;;;;4957184;28;20445;-75
2022/10/31 07:23:49;;;;;;;20.95;18.75;;;;;;;;;;4949614;28;20043;-75
2022/10/31 07:26:15;;;;;;;23.08;18.50;;;;;;;;;;4966811;28;20068;-75
2022/10/31 07:28:41;;;;;;;20.58;17.63;;;;;;;;;;4951759;28;20082;-76
2022/10/31 07:31:07;;;;;;;24.25;19.65;;;;;;;;;;4956021;28;20149;-75
2022/10/31 07:33:33;;;;;;;20.08;17.83;;;;;;;;;;4957192;28;20047;-75
2022/10/31 07:36:00;;;;;;;20.65;18.40;;;;;;;;;;4955695;28;20121;-75
2022/10/31 07:38:26;;;;;;;22.55;18.15;;;;;;;;;;4946286;28;20066;-75
2022/10/31 07:40:52;;;;;;;26.90;19.33;;;;;;;;;;4941405;28;20063;-74
2022/10/31 07:43:19;;;;;;;24.58;18.30;;;;;;;;;;4944958;28;20093;-74
2022/10/31 07:45:49;;;;;;;20.95;18.15;;;;;;;;;;4954979;28;20037;-75
2022/10/31 07:48:15;;;;;;;21.95;18.73;;;;;;;;;;4950903;28;20050;-76
2022/10/31 07:50:41;;;;;;;20.42;18.13;;;;;;;;;;4985927;28;20042;-75
2022/10/31 07:53:09;;;;;;;24.13;18.48;;;;;;;;;;4951674;28;20062;-75
2022/10/31 07:55:35;;;;;;;22.65;19.20;;;;;;;;;;4951007;28;20039;-75
2022/10/31 07:58:05;;;;;;;23.50;18.80;;;;;;;;;;4939376;28;20055;-76
2022/10/31 08:00:31;;;;;;;21.10;18.90;;;;;;;;;;4951755;28;20117;-75
2022/10/31 08:03:05;;;;;;;26.58;19.65;;;;;;;;;;4955743;28;20137;-76
2022/10/31 08:05:35;;;;;;;22.00;19.02;;;;;;;;;;4950751;28;20126;-75
2022/10/31 08:08:01;;;;;;;21.05;18.77;;;;;;;;;;4960000;28;20451;-75
2022/10/31 08:10:27;;;;;;;23.27;18.63;;;;;;;;;;4968060;28;20476;-76
2022/10/31 08:12:58;;;;;;;21.58;18.85;;;;;;;;;;4952194;28;20058;-75
2022/10/31 08:15:24;;;;;;;21.05;18.85;;;;;;;;;;4966817;28;20055;-76
2022/10/31 08:17:50;;;;;;;23.23;19.73;;;;;;;;;;4948099;28;20082;-76
2022/10/31 08:20:16;;;;;;;21.33;18.95;;;;;;;;;;4943604;28;20039;-76
2022/10/31 08:22:42;;;;;;;24.70;19.77;;;;;;;;;;4945969;28;20055;-76
2022/10/31 08:25:09;;;;;;;24.15;20.65;;;;;;;;;;4952827;28;20131;-76
2022/10/31 08:27:34;;;;;;;25.27;19.63;;;;;;;;;;4941940;28;20051;-75
2022/10/31 08:30:01;;;;;;;21.45;19.15;;;;;;;;;;4958173;28;20043;-75
2022/10/31 08:32:27;;;;;;;21.95;19.52;;;;;;;;;;4946814;28;20035;-75
2022/10/31 08:34:53;;;;;;;24.05;20.55;;;;;;;;;;4950740;28;20121;-75
2022/10/31 08:37:19;;;;;;;22.95;20.17;;;;;;;;;;4968072;28;20052;-75
2022/10/31 08:39:48;;;;;;;25.23;20.08;;;;;;;;;;4954358;28;20399;-75
2022/10/31 08:42:14;;;;;;;24.38;20.75;;;;;;;;;;4958268;28;20392;-76
2022/10/31 08:44:40;;;;;;;22.38;19.88;;;;;;;;;;4963466;28;20051;-76
2022/10/31 08:47:06;;;;;;;22.70;19.98;;;;;;;;;;4967694;28;20054;-75
2022/10/31 08:49:32;;;;;;;22.42;20.05;;;;;;;;;;4956685;28;20194;-75
2022/10/31 08:51:58;;;;;;;21.38;19.08;;;;;;;;;;4942540;28;20387;-75
2022/10/31 08:54:24;;;;;;;22.00;19.63;;;;;;;;;;4985331;28;20039;-75
2022/10/31 08:56:55;;;;;;;21.63;18.23;;;;;;;;;;4958548;28;20047;-75
2022/10/31 08:59:21;;;;;;;22.48;19.58;;;;;;;;;;4982941;28;20079;-75
2022/10/31 09:01:47;;;;;;;23.77;19.65;;;;;;;;;;4985976;28;20059;-76
2022/10/31 09:04:13;;;;;;;23.20;18.67;;;;;;;;;;4956863;28;20534;-75
2022/10/31 09:06:39;;;;;;;20.38;18.27;;;;;;;;;;4964577;28;20075;-75
2022/10/31 09:09:05;;;;;;;21.65;18.88;;;;;;;;;;4957231;28;20499;-76
2022/10/31 09:11:31;;;;;;;20.35;17.85;;;;;;;;;;4961749;28;20043;-75
2022/10/31 09:13:57;;;;;;;22.88;20.17;;;;;;;;;;4964267;28;20132;-75
2022/10/31 09:16:23;;;;;;;25.85;21.00;;;;;;;;;;4954928;28;20075;-75
2022/10/31 09:18:49;;;;;;;23.05;19.35;;;;;;;;;;4974301;28;20047;-75
2022/10/31 09:21:15;;;;;;;22.70;19.48;;;;;;;;;;4947976;28;20053;-75
2022/10/31 09:23:41;;;;;;;21.23;18.42;;;;;;;;;;4951492;28;20403;-75
2022/10/31 09:26:07;;;;;;;22.83;18.92;;;;;;;;;;4973100;28;20051;-75
2022/10/31 09:28:33;;;;;;;21.38;17.70;;;;;;;;;;4937442;29;20043;-75
2022/10/31 09:30:59;;;;;;;20.80;18.70;;;;;;;;;;4936414;29;20047;-75
2022/10/31 09:33:25;;;;;;;22.63;19.02;;;;;;;;;;4986184;28;20058;-76
2022/10/31 09:35:52;;;;;;;22.02;16.92;;;;;;;;;;4949821;28;20521;-75
2022/10/31 09:38:20;;;;;;;20.63;17.67;;;;;;;;;;4952113;28;20384;-76
2022/10/31 09:40:52;;;;;;;20.77;17.95;;;;;;;;;;4950518;28;20054;-76
2022/10/31 09:43:18;;;;;;;19.95;16.55;;;;;;;;;;4957156;28;20447;-76
2022/10/31 09:45:47;;;;;;;22.98;16.30;;;;;;;;;;4991411;28;20046;-76
2022/10/31 09:48:25;;;;;;;19.85;16.80;;;;;;;;;;4957578;28;20050;-76
2022/10/31 09:50:57;;;;;;;20.58;18.35;;;;;;;;;;4999941;28;20382;-75
2022/10/31 09:53:31;;;;;;;20.02;17.75;;;;;;;;;;4960959;28;20419;-75
2022/10/31 09:55:58;;;;;;;18.70;16.70;;;;;;;;;;4954853;28;20137;-76
2022/10/31 09:58:26;;;;;;;21.13;17.75;;;;;;;;;;4954283;28;20067;-75
2022/10/31 10:00:54;;;;;;;21.20;16.33;;;;;;;;;;4959525;28;20463;-76
2022/10/31 10:03:27;;;;;;;17.95;15.80;;;;;;;;;;4962469;28;20047;-75
2022/10/31 10:06:07;;;;;;;21.23;16.50;;;;;;;;;;4951787;28;20122;-75
2022/10/31 10:08:33;;;;;;;25.02;16.35;;;;;;;;;;4959706;28;20562;-75
2022/10/31 10:10:59;;;;;;;18.63;14.98;;;;;;;;;;4992273;28;20169;-75
2022/10/31 10:13:41;;;;;;;18.33;14.85;;;;;;;;;;4954577;28;20083;-76
2022/10/31 10:16:36;;;;;;;17.75;14.75;;;;;;;;;;4954428;28;20051;-76
2022/10/31 10:19:05;;;;;;;16.85;13.85;;;;;;;;;;4942747;28;20459;-76
2022/10/31 10:21:31;;;;;;;16.92;14.98;;;;;;;;;;4955370;28;20047;-75
2022/10/31 10:24:36;;;;;;;16.02;14.43;;;;;;;;;;4980737;28;20035;-75
2022/10/31 10:27:17;;;;;;;17.38;14.27;;;;;;;;;;4898214;29;20485;-75
2022/10/31 10:29:46;;;;;;;18.05;15.40;;;;;;;;;;4894797;29;20072;-76
2022/10/31 10:32:20;;;;;;;18.30;15.25;;;;;;;;;;4919785;29;20060;-76
2022/10/31 10:34:58;;;;;;;21.15;16.67;;;;;;;;;;4944296;29;20093;-76
2022/10/31 10:37:28;;;;;;;20.92;15.75;;;;;;;;;;4933683;29;20404;-75
2022/10/31 10:39:57;;;;;;;21.25;16.48;;;;;;;;;;4969672;28;20054;-76
2022/10/31 10:48:25;;;;;;;18.52;15.85;;;;;;;;;;4952131;29;20052;-78
2022/10/31 10:50:52;;;;;;;20.30;17.48;;;;;;;;;;4920205;29;20519;-75
2022/10/31 10:53:31;;;;;;;18.35;16.35;;;;;;;;;;4953421;28;20042;-76
2022/10/31 10:56:10;;;;;;;20.17;16.88;;;;;;;;;;4952140;28;20047;-76
2022/10/31 10:58:37;;;;;;;18.33;15.38;;;;;;;;;;4955501;28;20058;-75
2022/10/31 11:01:09;;;;;;;17.27;14.80;;;;;;;;;;4955997;28;20070;-76
2022/10/31 11:03:36;;;;;;;16.55;14.80;;;;;;;;;;4959909;28;20106;-75
2022/10/31 11:06:02;;;;;;;19.92;15.30;;;;;;;;;;4949679;28;20083;-75
2022/10/31 11:08:34;;;;;;;17.90;15.32;;;;;;;;;;4957062;28;20074;-75
2022/10/31 11:11:02;;;;;;;19.00;14.93;;;;;;;;;;4951573;28;20510;-75
2022/10/31 11:13:30;;;;;;;17.13;13.68;;;;;;;;;;4980676;28;20054;-75
2022/10/31 11:15:57;;;;;;;17.67;14.18;;;;;;;;;;4979807;28;20040;-75
2022/10/31 11:18:26;;;;;;;16.50;13.38;;;;;;;;;;4985368;28;20554;-75
2022/10/31 11:20:53;;;;;;;16.75;12.30;;;;;;;;;;4982877;28;20051;-75
2022/10/31 11:23:20;;;;;;;14.73;12.55;;;;;;;;;;4984036;28;20047;-76
2022/10/31 11:25:50;;;;;;;13.52;11.45;;;;;;;;;;4941792;28;20075;-75
2022/10/31 11:28:16;;;;;;;14.68;12.88;;;;;;;;;;4948178;29;20094;-76
2022/10/31 11:30:45;;;;;;;15.85;12.32;;;;;;;;;;4945267;28;20094;-75
2022/10/31 11:33:23;;;;;;;15.02;12.32;;;;;;;;;;4953381;28;20495;-75
2022/10/31 11:35:49;;;;;;;16.20;12.35;;;;;;;;;;4949392;28;20051;-76
2022/10/31 11:38:20;;;;;;;16.15;12.25;;;;;;;;;;4953649;28;20050;-75
2022/10/31 11:40:58;;;;;;;15.32;12.10;;;;;;;;;;4951231;28;20152;-75
2022/10/31 11:43:24;;;;;;;14.95;10.85;;;;;;;;;;4950900;29;20047;-75
2022/10/31 11:45:51;;;;;;;15.13;10.98;;;;;;;;;;4952188;28;20047;-75
2022/10/31 11:48:19;;;;;;;13.05;10.60;;;;;;;;;;4976185;28;20142;-76
2022/10/31 11:50:48;;;;;;;13.20;10.10;;;;;;;;;;4941948;28;20043;-76
2022/10/31 11:53:16;;;;;;;12.43;9.48;;;;;;;;;;4950191;28;20146;-76
2022/10/31 11:55:42;;;;;;;10.85;8.95;;;;;;;;;;4948767;28;20053;-76
2022/10/31 11:58:22;;;;;;;11.23;9.18;;;;;;;;;;4954079;28;20518;-75
2022/10/31 12:00:50;;;;;;;11.60;8.15;;;;;;;;;;4978684;28;20066;-76
2022/10/31 12:03:35;;;;;;;9.32;7.22;;;;;;;;;;4946357;28;20557;-75
2022/10/31 12:06:22;;;;;;;9.80;8.00;;;;;;;;;;4970191;28;20507;-75
2022/10/31 12:08:48;;;;;;;8.30;7.35;;;;;;;;;;4988171;28;20062;-76
2022/10/31 12:11:17;;;;;;;10.65;8.07;;;;;;;;;;4940676;28;20130;-75
2022/10/31 12:13:46;;;;;;;10.13;8.52;;;;;;;;;;4944412;28;20372;-75
2022/10/31 12:16:25;;;;;;;12.35;7.22;;;;;;;;;;4944120;28;20058;-75
2022/10/31 12:18:57;;;;;;;8.60;7.30;;;;;;;;;;4941858;28;20063;-75
2022/10/31 12:21:29;;;;;;;10.88;8.20;;;;;;;;;;4949295;28;20563;-75
2022/10/31 12:24:01;;;;;;;11.50;8.82;;;;;;;;;;4933176;29;20408;-76
2022/10/31 12:26:45;;;;;;;10.63;8.25;;;;;;;;;;4939770;29;20055;-76
2022/10/31 12:29:17;;;;;;;13.07;9.20;;;;;;;;;;4932855;29;20056;-75
2022/10/31 12:31:43;;;;;;;10.07;8.38;;;;;;;;;;4936634;28;20063;-76
2022/10/31 12:34:33;;;;;;;10.57;8.57;;;;;;;;;;4979628;28;20043;-76
2022/10/31 12:37:18;;;;;;;11.45;8.48;;;;;;;;;;4945811;28;20500;-76
2022/10/31 12:40:02;;;;;;;11.10;8.32;;;;;;;;;;4983553;28;20055;-76
2022/10/31 12:42:35;;;;;;;10.13;8.40;;;;;;;;;;4982960;28;20079;-76
2022/10/31 12:45:15;;;;;;;10.00;8.80;;;;;;;;;;4949596;28;20142;-75
2022/10/31 12:47:44;;;;;;;12.55;9.32;;;;;;;;;;4951874;28;20058;-75
2022/10/31 12:50:19;;;;;;;13.27;9.48;;;;;;;;;;4940606;28;20139;-75
2022/10/31 12:52:57;;;;;;;11.00;9.00;;;;;;;;;;4951290;28;20110;-75
2022/10/31 12:55:59;;;;;;;12.05;8.88;;;;;;;;;;4951369;28;20059;-76
2022/10/31 12:58:33;;;;;;;10.20;8.95;;;;;;;;;;4957125;28;20046;-76
2022/10/31 13:01:19;;;;;;;11.63;8.35;;;;;;;;;;4959077;28;20110;-76
2022/10/31 13:03:49;;;;;;;9.90;7.68;;;;;;;;;;4966148;28;20047;-75
2022/10/31 13:06:19;;;;;;;11.45;7.88;;;;;;;;;;4947319;28;20520;-75
2022/10/31 13:08:47;;;;;;;10.77;8.48;;;;;;;;;;4956445;29;20053;-76
2022/10/31 13:11:29;;;;;;;11.80;8.05;;;;;;;;;;4952001;29;20438;-76
2022/10/31 13:13:54;;;;;;;11.95;8.45;;;;;;;;;;4960482;28;20106;-77
2022/10/31 13:16:23;;;;;;;12.95;9.27;;;;;;;;;;4964328;28;20051;-77
2022/10/31 13:18:59;;;;;;;10.48;8.85;;;;;;;;;;4985630;28;20078;-77
2022/10/31 13:21:39;;;;;;;12.15;9.38;;;;;;;;;;4967391;28;20142;-77
2022/10/31 13:24:10;;;;;;;11.60;8.85;;;;;;;;;;4952822;28;20054;-77
2022/10/31 13:26:42;;;;;;;11.52;8.90;;;;;;;;;;4995765;28;20499;-77
2022/10/31 13:29:14;;;;;;;10.35;9.25;;;;;;;;;;4989235;28;20066;-77
2022/10/31 13:31:41;;;;;;;12.07;9.15;;;;;;;;;;4952548;28;20179;-76
2022/10/31 13:34:20;;;;;;;9.07;8.15;;;;;;;;;;4959525;28;20042;-76
2022/10/31 13:36:52;;;;;;;10.52;7.88;;;;;;;;;;4965793;28;20368;-76
2022/10/31 13:39:27;;;;;;;10.27;7.57;;;;;;;;;;4937436;28;20123;-76
2022/10/31 13:41:59;;;;;;;9.68;7.65;;;;;;;;;;4947463;28;20508;-76
2022/10/31 13:44:26;;;;;;;8.93;5.90;;;;;;;;;;4974770;28;20053;-76
2022/10/31 13:46:54;;;;;;;8.25;5.80;;;;;;;;;;4953203;29;20043;-76
2022/10/31 13:49:29;;;;;;;8.05;5.88;;;;;;;;;;4985549;28;20046;-76
2022/10/31 13:52:10;;;;;;;8.35;5.63;;;;;;;;;;4967983;28;20394;-76
2022/10/31 13:54:38;;;;;;;9.05;5.82;;;;;;;;;;4957656;28;20070;-76
2022/10/31 13:57:07;;;;;;;9.43;5.90;;;;;;;;;;4964029;28;20516;-76
2022/10/31 13:59:36;;;;;;;8.75;6.13;;;;;;;;;;4981562;28;20095;-76
2022/10/31 14:02:13;;;;;;;8.57;6.20;;;;;;;;;;4957227;28;20419;-76
2022/10/31 14:04:45;;;;;;;11.82;7.22;;;;;;;;;;4967072;28;20480;-76
2022/10/31 14:07:12;;;;;;;10.50;6.65;;;;;;;;;;4957251;28;20054;-76
2022/10/31 14:09:40;;;;;;;10.00;6.57;;;;;;;;;;4993649;28;20093;-76
2022/10/31 14:12:25;;;;;;;10.07;6.68;;;;;;;;;;4965923;28;20043;-76
2022/10/31 14:14:53;;;;;;;12.40;7.40;;;;;;;;;;4984658;28;20055;-77
2022/10/31 14:17:24;;;;;;;8.98;5.93;;;;;;;;;;4950212;28;20036;-76
2022/10/31 14:20:08;;;;;;;9.18;6.15;;;;;;;;;;4969627;28;20458;-76
2022/10/31 14:22:35;;;;;;;8.77;5.80;;;;;;;;;;4958246;28;20470;-76
2022/10/31 14:25:01;;;;;;;6.47;5.35;;;;;;;;;;4940090;28;20043;-76
2022/10/31 14:27:26;;;;;;;8.05;5.50;;;;;;;;;;4953304;28;20054;-76
2022/10/31 14:29:53;;;;;;;8.45;5.50;;;;;;;;;;4956006;28;20432;-76
2022/10/31 14:32:22;;;;;;;8.43;5.68;;;;;;;;;;4945324;28;20047;-76
2022/10/31 14:34:51;;;;;;;7.57;6.07;;;;;;;;;;4936620;29;20055;-76
2022/10/31 14:37:23;;;;;;;8.13;5.38;;;;;;;;;;4980460;28;20050;-75
2022/10/31 14:40:05;;;;;;;9.57;5.80;;;;;;;;;;4938087;29;20058;-76
2022/10/31 14:42:49;;;;;;;8.88;5.80;;;;;;;;;;4950377;28;20142;-75